createdAt,value
2023-03-05T00:01:11.299Z,36.03
2023-03-05T00:04:13.885Z,30.57
2023-03-05T00:07:15.445Z,29.10
2023-03-05T00:10:17.200Z,30.50
2023-03-05T00:13:18.895Z,30.47
2023-03-05T00:16:20.998Z,44.37
2023-03-05T00:19:22.747Z,45.10
2023-03-05T00:22:24.410Z,28.40
2023-03-05T00:25:26.142Z,26.67
2023-03-05T00:28:27.751Z,24.70
2023-03-05T00:31:30.704Z,25.60
2023-03-05T00:34:32.417Z,26.40
2023-03-05T00:37:34.084Z,30.43
2023-03-05T00:40:37.028Z,31.73
2023-03-05T00:43:38.738Z,30.30
2023-03-05T00:46:40.628Z,37.33
2023-03-05T00:49:42.557Z,32.20
2023-03-05T00:52:44.822Z,27.50
2023-03-05T00:55:46.505Z,27.07
2023-03-05T00:58:48.327Z,26.87
2023-03-05T01:01:50.334Z,29.00
2023-03-05T01:04:52.067Z,34.03
2023-03-05T01:07:54.665Z,30.47
2023-03-05T01:10:56.358Z,27.73
2023-03-05T01:13:57.999Z,30.27
2023-03-05T01:16:59.649Z,25.13
2023-03-05T01:20:01.370Z,26.63
2023-03-05T01:23:03.008Z,25.67
2023-03-05T01:26:05.383Z,24.67
2023-03-05T01:29:07.135Z,25.60
2023-03-05T01:32:08.934Z,31.20
2023-03-05T01:35:15.278Z,28.57
2023-03-05T01:38:17.439Z,28.03
2023-03-05T01:41:19.565Z,27.33
2023-03-05T01:44:26.183Z,35.13
2023-03-05T01:47:28.113Z,28.60
2023-03-05T01:50:30.092Z,27.93
2023-03-05T01:53:31.769Z,31.33
2023-03-05T01:56:33.867Z,29.93
2023-03-05T01:59:36.657Z,28.30
2023-03-05T02:02:38.633Z,37.40
2023-03-05T02:05:41.315Z,36.27
2023-03-05T02:08:42.983Z,31.50
2023-03-05T02:11:44.616Z,29.93
2023-03-05T02:14:47.839Z,35.30
2023-03-05T02:17:49.983Z,58.50
2023-03-05T02:20:51.706Z,37.87
2023-03-05T02:23:53.336Z,47.73
2023-03-05T02:26:56.251Z,36.67
2023-03-05T02:29:57.925Z,32.47
2023-03-05T02:32:59.493Z,44.77
2023-03-05T02:36:01.810Z,41.70
2023-03-05T02:39:04.350Z,39.03
2023-03-05T02:42:06.167Z,51.47
2023-03-05T02:45:08.312Z,34.53
2023-03-05T02:48:09.986Z,51.10
2023-03-05T02:51:11.722Z,29.53
2023-03-05T02:54:13.371Z,34.37
2023-03-05T02:57:15.285Z,34.33
2023-03-05T03:00:17.437Z,41.43
2023-03-05T03:03:19.494Z,36.03
2023-03-05T03:06:21.165Z,38.73
2023-03-05T03:09:22.840Z,63.47
2023-03-05T03:12:24.410Z,60.00
2023-03-05T03:15:26.125Z,94.20
2023-03-05T03:18:27.791Z,71.30
2023-03-05T03:21:29.538Z,65.50
2023-03-05T03:24:31.780Z,41.80
2023-03-05T03:27:33.658Z,38.17
2023-03-05T03:30:36.541Z,68.27
2023-03-05T03:33:38.215Z,75.90
2023-03-05T03:36:39.899Z,42.10
2023-03-05T03:39:41.590Z,37.53
2023-03-05T03:42:43.297Z,32.07
2023-03-05T03:45:44.882Z,32.93
2023-03-05T03:48:49.655Z,28.10
2023-03-05T03:51:52.088Z,29.60
2023-03-05T03:54:55.816Z,24.20
2023-03-05T03:57:57.437Z,29.37
2023-03-05T04:00:59.184Z,28.50
2023-03-05T04:04:00.970Z,28.70
2023-03-05T04:07:02.853Z,31.77
2023-03-05T04:10:04.614Z,43.80
2023-03-05T04:13:06.796Z,32.53
2023-03-05T04:16:09.067Z,33.83
2023-03-05T04:19:10.679Z,30.37
2023-03-05T04:22:16.537Z,34.93
2023-03-05T04:25:18.123Z,32.60
2023-03-05T04:28:19.682Z,41.07
2023-03-05T04:31:21.551Z,33.73
2023-03-05T04:34:23.390Z,35.43
2023-03-05T04:37:25.545Z,45.43
2023-03-05T04:40:27.104Z,38.10
2023-03-05T04:43:28.709Z,35.27
2023-03-05T04:46:30.447Z,37.33
2023-03-05T04:49:32.177Z,38.73
2023-03-05T04:52:33.796Z,37.53
2023-03-05T04:55:35.452Z,33.23
2023-03-05T04:58:37.093Z,44.60
2023-03-05T05:01:38.968Z,37.73
2023-03-05T05:04:43.425Z,46.67
2023-03-05T05:07:45.133Z,37.00
2023-03-05T05:10:46.713Z,38.10
2023-03-05T05:13:48.311Z,41.67
2023-03-05T05:16:49.898Z,38.33
2023-03-05T05:19:51.708Z,43.37
2023-03-05T05:22:53.305Z,39.63
2023-03-05T05:26:02.000Z,37.77
2023-03-05T05:29:03.610Z,35.67
2023-03-05T05:32:05.368Z,41.27
2023-03-05T05:35:07.294Z,38.97
2023-03-05T05:38:08.845Z,42.67
2023-03-05T05:41:14.788Z,48.10
2023-03-05T05:44:19.326Z,42.03
2023-03-05T05:47:21.088Z,37.90
2023-03-05T05:50:22.721Z,42.53
2023-03-05T05:53:24.922Z,35.50
2023-03-05T05:56:26.994Z,40.13
2023-03-05T05:59:28.714Z,44.10
2023-03-05T06:02:30.405Z,37.00
2023-03-05T06:05:32.057Z,43.27
2023-03-05T06:08:33.628Z,42.30
2023-03-05T06:11:35.313Z,46.70
2023-03-05T06:14:37.027Z,49.57
2023-03-05T06:17:38.839Z,44.47
2023-03-05T06:20:40.445Z,40.93
2023-03-05T06:23:42.669Z,42.93
2023-03-05T06:26:44.359Z,45.80
2023-03-05T06:29:46.037Z,41.90
2023-03-05T06:32:47.714Z,43.47
2023-03-05T06:35:49.362Z,47.60
2023-03-05T06:38:53.198Z,46.50
2023-03-05T06:41:55.108Z,61.63
2023-03-05T06:44:56.733Z,54.53
2023-03-05T06:47:58.312Z,46.33
2023-03-05T06:51:00.046Z,46.60
2023-03-05T06:54:03.078Z,35.97
2023-03-05T06:57:04.663Z,35.40
2023-03-05T07:00:10.226Z,42.87
2023-03-05T07:03:12.121Z,40.87
2023-03-05T07:06:14.599Z,39.03
2023-03-05T07:09:16.468Z,49.03
2023-03-05T07:12:18.069Z,44.10
2023-03-05T07:15:19.706Z,42.47
2023-03-05T07:18:21.624Z,39.40
2023-03-05T07:21:24.821Z,37.33
2023-03-05T07:24:29.870Z,36.13
2023-03-05T07:27:34.455Z,44.83
2023-03-05T07:30:36.166Z,39.30
2023-03-05T07:33:37.921Z,43.37
2023-03-05T07:36:39.648Z,40.30
2023-03-05T07:39:41.330Z,37.77
2023-03-05T07:42:42.997Z,53.07
2023-03-05T07:45:55.352Z,37.77
2023-03-05T07:48:57.161Z,44.73
2023-03-05T07:51:58.772Z,35.40
2023-03-05T07:55:00.422Z,58.07
2023-03-05T07:58:02.087Z,91.67
2023-03-05T08:01:03.903Z,90.33
2023-03-05T08:04:06.738Z,133.90
2023-03-05T08:07:08.538Z,42.40
2023-03-05T08:10:10.548Z,224.23
2023-03-05T08:13:12.224Z,118.57
2023-03-05T08:16:18.690Z,63.13
2023-03-05T08:19:21.372Z,130.67
2023-03-05T08:22:23.014Z,96.50
2023-03-05T08:25:24.652Z,69.93
2023-03-05T08:28:26.264Z,55.87
2023-03-05T08:31:28.180Z,82.40
2023-03-05T08:34:29.838Z,75.63
2023-03-05T08:37:31.515Z,63.97
2023-03-05T08:40:33.198Z,41.90
2023-03-05T08:43:34.904Z,39.20
2023-03-05T08:46:41.539Z,82.00
2023-03-05T08:49:43.202Z,51.10
2023-03-05T08:52:44.765Z,44.53
2023-03-05T08:55:53.617Z,42.10
2023-03-05T08:58:58.318Z,41.37
2023-03-05T09:02:00.967Z,49.80
2023-03-05T09:05:03.288Z,38.80
2023-03-05T09:08:04.860Z,46.93
2023-03-05T09:11:08.058Z,35.60
2023-03-05T09:14:10.210Z,40.67
2023-03-05T09:17:11.791Z,38.90
2023-03-05T09:20:13.982Z,34.80
2023-03-05T09:23:15.577Z,32.00
2023-03-05T09:26:19.437Z,32.70
2023-03-05T09:29:21.222Z,35.03
2023-03-05T09:32:22.848Z,33.50
2023-03-05T09:35:24.436Z,32.33
2023-03-05T09:38:26.618Z,31.60
2023-03-05T09:41:31.313Z,32.40
2023-03-05T09:44:41.599Z,36.43
2023-03-05T09:48:01.903Z,30.67
2023-03-05T09:51:04.593Z,34.40
2023-03-05T09:54:06.278Z,30.53
2023-03-05T09:57:14.580Z,34.37
2023-03-05T10:00:34.751Z,30.03
2023-03-05T10:03:36.434Z,35.03
2023-03-05T10:06:53.176Z,29.30
2023-03-05T10:10:05.802Z,30.30
2023-03-05T10:13:27.257Z,30.77
2023-03-05T10:16:46.034Z,32.97
2023-03-05T10:19:47.720Z,39.93
2023-03-05T10:23:07.795Z,35.53
2023-03-05T10:26:09.364Z,36.30
2023-03-05T10:29:11.018Z,38.47
2023-03-05T10:32:31.431Z,33.67
2023-03-05T10:35:48.170Z,32.70
2023-03-05T10:39:08.612Z,32.80
2023-03-05T10:42:23.089Z,35.40
2023-03-05T10:45:28.184Z,28.17
2023-03-05T10:48:32.615Z,31.93
2023-03-05T10:51:43.861Z,37.23
2023-03-05T10:54:45.487Z,32.83
2023-03-05T10:57:47.425Z,30.50
2023-03-05T11:01:01.418Z,30.70
2023-03-05T11:04:04.676Z,27.77
2023-03-05T11:07:12.117Z,27.73
2023-03-05T11:10:15.585Z,28.20
2023-03-05T11:13:27.271Z,26.83
2023-03-05T11:16:33.443Z,25.03
2023-03-05T11:19:35.396Z,29.00
2023-03-05T11:22:37.075Z,23.93
2023-03-05T11:25:54.155Z,23.27
2023-03-05T11:28:57.429Z,21.70
2023-03-05T11:32:21.056Z,25.80
2023-03-05T11:35:30.535Z,22.37
2023-03-05T11:38:34.103Z,27.10
2023-03-05T11:41:48.730Z,23.10
2023-03-05T11:44:55.821Z,30.43
2023-03-05T11:48:09.198Z,48.53
2023-03-05T11:51:16.902Z,31.40
2023-03-05T11:54:22.954Z,43.07
2023-03-05T11:57:24.746Z,29.57
2023-03-05T12:00:28.611Z,26.70
2023-03-05T12:03:34.882Z,24.97
2023-03-05T12:06:43.194Z,27.70
2023-03-05T12:09:52.400Z,27.27
2023-03-05T12:12:59.534Z,27.43
2023-03-05T12:16:26.207Z,26.80
2023-03-05T12:19:31.123Z,26.67
2023-03-05T12:22:40.910Z,25.97
2023-03-05T12:25:47.786Z,24.40
2023-03-05T12:28:53.644Z,22.73
2023-03-05T12:31:55.489Z,22.53
2023-03-05T12:35:07.025Z,24.23
2023-03-05T12:38:26.836Z,23.37
2023-03-05T12:41:28.871Z,21.13
2023-03-05T12:44:30.519Z,20.80
2023-03-05T12:47:32.163Z,22.73
2023-03-05T12:50:39.718Z,21.67
2023-03-05T12:53:41.581Z,26.13
2023-03-05T12:56:44.978Z,18.63
2023-03-05T12:59:50.159Z,21.07
2023-03-05T13:02:57.995Z,25.40
2023-03-05T13:06:00.980Z,24.87
2023-03-05T13:09:16.869Z,26.20
2023-03-05T13:12:18.522Z,48.17
2023-03-05T13:15:20.395Z,58.43
2023-03-05T13:18:22.050Z,63.03
2023-03-05T13:21:29.071Z,68.60
2023-03-05T13:24:31.072Z,89.37
2023-03-05T13:27:34.051Z,60.07
2023-03-05T13:30:35.735Z,27.57
2023-03-05T13:33:37.510Z,30.30
2023-03-05T13:36:39.857Z,26.60
2023-03-05T13:39:44.040Z,34.57
2023-03-05T13:42:45.812Z,23.57
2023-03-05T13:45:53.925Z,23.83
2023-03-05T13:48:55.875Z,28.00
2023-03-05T13:51:57.995Z,30.33
2023-03-05T13:55:00.400Z,35.87
2023-03-05T13:58:02.174Z,23.00
2023-03-05T14:01:14.923Z,23.03
2023-03-05T14:04:38.268Z,21.80
2023-03-05T14:07:41.545Z,23.37
2023-03-05T14:10:43.977Z,35.30
2023-03-05T14:13:46.881Z,48.60
2023-03-05T14:16:48.622Z,23.67
2023-03-05T14:19:50.387Z,21.03
2023-03-05T14:22:53.477Z,27.53
2023-03-05T14:26:11.258Z,25.37
2023-03-05T14:29:15.137Z,23.23
2023-03-05T14:32:20.586Z,26.43
2023-03-05T14:35:24.549Z,24.37
2023-03-05T14:38:34.155Z,31.80
2023-03-05T14:41:40.569Z,25.80
2023-03-05T14:44:43.635Z,25.07
2023-03-05T14:47:45.252Z,29.77
2023-03-05T14:50:53.209Z,27.80
2023-03-05T14:53:57.985Z,25.37
2023-03-05T14:56:59.596Z,28.33
2023-03-05T15:00:01.828Z,22.47
2023-03-05T15:03:03.779Z,26.13
2023-03-05T15:06:05.584Z,26.07
2023-03-05T15:09:07.579Z,24.07
2023-03-05T15:12:11.555Z,25.77
2023-03-05T15:15:16.689Z,27.57
2023-03-05T15:18:19.569Z,26.70
2023-03-05T15:21:21.268Z,26.77
2023-03-05T15:24:22.964Z,25.77
2023-03-05T15:27:24.683Z,27.10
2023-03-05T15:30:28.478Z,29.93
2023-03-05T15:33:30.523Z,27.90
2023-03-05T15:36:33.722Z,24.63
2023-03-05T15:39:35.630Z,25.93
2023-03-05T15:42:37.226Z,23.90
2023-03-05T15:45:41.862Z,24.10
2023-03-05T15:48:49.845Z,28.80
2023-03-05T15:51:51.947Z,24.73
2023-03-05T15:54:53.546Z,28.17
2023-03-05T15:57:55.153Z,23.13
2023-03-05T16:00:56.826Z,26.10
2023-03-05T16:03:58.504Z,27.77
2023-03-05T16:07:03.055Z,31.07
2023-03-05T16:10:05.235Z,25.00
2023-03-05T16:13:09.102Z,28.07
2023-03-05T16:16:11.036Z,22.03
2023-03-05T16:19:14.469Z,26.80
2023-03-05T16:22:16.209Z,26.93
2023-03-05T16:25:18.048Z,27.87
2023-03-05T16:28:19.657Z,33.93
2023-03-05T16:31:21.563Z,31.53
2023-03-05T16:34:23.396Z,30.73
2023-03-05T16:37:25.216Z,38.10
2023-03-05T16:40:34.495Z,40.90
2023-03-05T16:43:48.802Z,37.07
2023-03-05T16:46:53.744Z,38.70
2023-03-05T16:49:55.451Z,32.70
2023-03-05T16:52:57.411Z,44.63
2023-03-05T16:55:59.627Z,47.30
2023-03-05T16:59:01.345Z,65.20
2023-03-05T17:02:03.696Z,41.30
2023-03-05T17:05:05.527Z,75.73
2023-03-05T17:08:07.515Z,43.53
2023-03-05T17:11:09.498Z,41.90
2023-03-05T17:14:11.184Z,46.10
2023-03-05T17:17:12.873Z,47.87
2023-03-05T17:20:14.532Z,47.03
2023-03-05T17:23:16.146Z,53.43
2023-03-05T17:26:19.121Z,83.83
2023-03-05T17:29:22.529Z,353.43
2023-03-05T17:32:27.399Z,104.40
2023-03-05T17:35:29.633Z,271.47
2023-03-05T17:38:31.303Z,295.10
2023-03-05T17:41:33.053Z,162.30
2023-03-05T17:44:34.700Z,95.93
2023-03-05T17:47:36.348Z,90.63
2023-03-05T17:50:38.090Z,126.17
2023-03-05T17:53:40.397Z,102.27
2023-03-05T17:56:42.108Z,302.00
2023-03-05T17:59:44.663Z,180.90
2023-03-05T18:02:46.638Z,138.43
2023-03-05T18:05:48.340Z,112.63
2023-03-05T18:08:50.033Z,81.70
2023-03-05T18:11:51.656Z,83.37
2023-03-05T18:14:54.732Z,46.87
2023-03-05T18:17:56.470Z,34.97
2023-03-05T18:20:58.402Z,28.40
2023-03-05T18:24:00.069Z,34.53
2023-03-05T18:27:01.786Z,46.83
2023-03-05T18:30:03.565Z,33.60
2023-03-05T18:33:05.229Z,37.27
2023-03-05T18:36:07.165Z,44.30
2023-03-05T18:39:09.951Z,53.37
2023-03-05T18:42:13.292Z,33.53
2023-03-05T18:45:16.666Z,37.30
2023-03-05T18:48:18.929Z,35.53
2023-03-05T18:51:21.735Z,34.60
2023-03-05T18:54:23.475Z,36.90
2023-03-05T18:57:25.134Z,36.47
2023-03-05T19:00:28.104Z,35.70
2023-03-05T19:03:29.700Z,51.00
2023-03-05T19:06:31.480Z,32.43
2023-03-05T19:09:58.194Z,45.00
2023-03-05T19:13:27.054Z,41.17
2023-03-05T19:16:43.497Z,54.73
2023-03-05T19:19:49.676Z,57.10
2023-03-05T19:22:51.696Z,38.90
2023-03-05T19:25:53.426Z,36.07
2023-03-05T19:28:55.270Z,58.00
2023-03-05T19:31:56.994Z,41.47
2023-03-05T19:34:58.901Z,37.70
2023-03-05T19:38:00.553Z,38.43
2023-03-05T19:41:02.225Z,35.30
2023-03-05T19:44:03.888Z,32.13
2023-03-05T19:47:06.024Z,23.53
2023-03-05T19:50:08.218Z,28.57
2023-03-05T19:53:09.797Z,33.77
2023-03-05T19:56:12.111Z,30.87
2023-03-05T19:59:16.523Z,39.83
2023-03-05T20:02:21.715Z,55.40
2023-03-05T20:05:25.671Z,48.60
2023-03-05T20:08:27.284Z,48.40
2023-03-05T20:11:29.072Z,85.40
2023-03-05T20:14:31.228Z,39.07
2023-03-05T20:17:32.876Z,81.50
2023-03-05T20:20:37.355Z,27.07
2023-03-05T20:23:40.065Z,25.00
2023-03-05T20:26:42.599Z,31.67
2023-03-05T20:29:44.228Z,24.00
2023-03-05T20:32:46.226Z,31.03
2023-03-05T20:35:47.922Z,30.40
2023-03-05T20:38:49.686Z,24.70
2023-03-05T20:41:51.422Z,26.17
2023-03-05T20:44:53.594Z,27.00
2023-03-05T20:47:55.198Z,27.10
2023-03-05T20:50:57.064Z,38.37
2023-03-05T20:54:02.490Z,24.27
2023-03-05T20:57:04.400Z,22.17
2023-03-05T21:00:06.373Z,33.17
2023-03-05T21:03:09.481Z,29.57
2023-03-05T21:06:11.151Z,30.30
2023-03-05T21:09:15.710Z,46.27
2023-03-05T21:12:17.415Z,41.30
2023-03-05T21:15:20.649Z,45.87
2023-03-05T21:18:22.416Z,60.20
2023-03-05T21:21:24.384Z,41.43
2023-03-05T21:25:04.012Z,34.47
2023-03-05T21:28:07.591Z,39.40
2023-03-05T21:31:11.308Z,63.37
2023-03-05T21:34:14.653Z,49.60
2023-03-05T21:37:16.238Z,46.87
2023-03-05T21:40:19.607Z,32.77
2023-03-05T21:43:22.084Z,47.90
2023-03-05T21:46:23.775Z,66.53
2023-03-05T21:49:25.604Z,34.20
2023-03-05T21:52:27.299Z,127.93
2023-03-05T21:56:00.322Z,34.97
2023-03-05T21:59:03.100Z,37.43
2023-03-05T22:02:04.717Z,84.57
2023-03-05T22:05:06.835Z,29.40
2023-03-05T22:08:08.453Z,39.23
2023-03-05T22:11:10.998Z,37.73
2023-03-05T22:14:12.910Z,39.13
2023-03-05T22:17:14.587Z,34.17
2023-03-05T22:20:16.452Z,32.23
2023-03-05T22:23:19.237Z,38.93
2023-03-05T22:26:20.772Z,34.40
2023-03-05T22:29:22.539Z,30.37
2023-03-05T22:32:24.171Z,28.70
2023-03-05T22:35:25.817Z,30.83
2023-03-05T22:38:27.510Z,27.40
2023-03-05T22:41:29.104Z,33.00
2023-03-05T22:44:30.763Z,34.33
2023-03-05T22:47:32.467Z,34.47
2023-03-05T22:50:34.147Z,29.70
2023-03-05T22:53:35.898Z,28.47
2023-03-05T22:56:37.498Z,29.40
2023-03-05T22:59:39.221Z,29.83
2023-03-05T23:02:41.779Z,24.70
2023-03-05T23:05:43.388Z,31.60
2023-03-05T23:08:45.003Z,28.90
2023-03-05T23:11:46.784Z,29.47
2023-03-05T23:14:48.635Z,29.53
2023-03-05T23:17:50.295Z,32.47
2023-03-05T23:20:53.625Z,30.93
2023-03-05T23:23:56.621Z,28.80
2023-03-05T23:26:58.419Z,31.90
2023-03-05T23:30:21.778Z,33.00
2023-03-05T23:33:23.940Z,25.67
2023-03-05T23:36:26.097Z,32.70
2023-03-05T23:39:27.714Z,31.00
2023-03-05T23:42:29.450Z,31.10
2023-03-05T23:45:31.176Z,35.80
2023-03-05T23:48:32.826Z,26.93
2023-03-05T23:51:34.686Z,27.53
2023-03-05T23:54:36.343Z,25.97
2023-03-05T23:57:37.996Z,23.90
